createdAt,value
2022-09-18T00:03:24.466Z,101550.0
2022-09-18T00:08:24.398Z,101560.0
2022-09-18T00:13:24.405Z,101550.0
2022-09-18T00:18:24.406Z,101540.0
2022-09-18T00:23:24.409Z,101540.0
2022-09-18T00:28:24.409Z,101550.0
2022-09-18T00:33:24.410Z,101540.0
2022-09-18T00:38:24.414Z,101540.0
2022-09-18T00:43:24.417Z,101540.0
2022-09-18T00:48:24.424Z,101550.0
2022-09-18T00:53:24.424Z,101540.0
2022-09-18T00:58:24.422Z,101530.0
2022-09-18T01:03:24.427Z,101540.0
2022-09-18T01:08:24.431Z,101530.0
2022-09-18T01:13:24.439Z,101550.0
2022-09-18T01:18:24.446Z,101550.0
2022-09-18T01:23:24.436Z,101550.0
2022-09-18T01:28:24.443Z,101550.0
2022-09-18T01:33:24.439Z,101540.0
2022-09-18T01:38:24.454Z,101540.0
2022-09-18T01:43:24.447Z,101540.0
2022-09-18T01:48:24.451Z,101540.0
2022-09-18T01:53:24.458Z,101540.0
2022-09-18T01:58:24.466Z,101530.0
2022-09-18T02:03:24.458Z,101520.0
2022-09-18T02:08:24.456Z,101520.0
2022-09-18T02:13:24.463Z,101510.0
2022-09-18T02:18:24.463Z,101520.0
2022-09-18T02:23:24.468Z,101530.0
2022-09-18T02:28:24.496Z,101520.0
2022-09-18T02:33:24.475Z,101510.0
2022-09-18T02:38:24.539Z,101510.0
2022-09-18T02:43:24.481Z,101510.0
2022-09-18T02:48:24.485Z,101500.0
2022-09-18T02:53:24.486Z,101500.0
2022-09-18T02:58:24.484Z,101500.0
2022-09-18T03:03:24.489Z,101480.0
2022-09-18T03:08:24.495Z,101490.0
2022-09-18T03:13:24.493Z,101490.0
2022-09-18T03:18:24.499Z,101500.0
2022-09-18T03:23:24.510Z,101490.0
2022-09-18T03:28:24.503Z,101490.0
2022-09-18T03:33:24.505Z,101470.0
2022-09-18T03:38:24.511Z,101480.0
2022-09-18T03:43:24.515Z,101470.0
2022-09-18T03:48:24.514Z,101480.0
2022-09-18T03:53:24.522Z,101480.0
2022-09-18T03:58:24.514Z,101480.0
2022-09-18T04:03:24.525Z,101470.0
2022-09-18T04:08:24.520Z,101470.0
2022-09-18T04:13:24.525Z,101480.0
2022-09-18T04:18:24.529Z,101470.0
2022-09-18T04:23:24.534Z,101470.0
2022-09-18T04:28:24.537Z,101460.0
2022-09-18T04:33:24.542Z,101470.0
2022-09-18T04:38:24.544Z,101470.0
2022-09-18T04:43:24.544Z,101460.0
2022-09-18T04:48:24.549Z,101460.0
2022-09-18T04:53:24.545Z,101460.0
2022-09-18T04:58:24.553Z,101460.0
2022-09-18T05:03:24.557Z,101460.0
2022-09-18T05:08:24.576Z,101460.0
2022-09-18T05:13:24.565Z,101450.0
2022-09-18T05:18:24.564Z,101460.0
2022-09-18T05:23:24.563Z,101450.0
2022-09-18T05:28:24.573Z,101460.0
2022-09-18T05:38:24.576Z,101460.0
2022-09-18T05:43:24.580Z,101460.0
2022-09-18T05:48:24.578Z,101460.0
2022-09-18T05:53:24.585Z,101470.0
2022-09-18T06:03:24.694Z,101480.0
2022-09-18T06:08:24.600Z,101480.0
2022-09-18T06:13:24.592Z,101480.0
2022-09-18T06:18:24.593Z,101470.0
2022-09-18T06:23:24.604Z,101470.0
2022-09-18T06:28:24.597Z,101460.0
2022-09-18T06:33:24.604Z,101440.0
2022-09-18T06:38:24.607Z,101450.0
2022-09-18T06:43:24.608Z,101450.0
2022-09-18T06:48:24.609Z,101450.0
2022-09-18T06:53:24.615Z,101440.0
2022-09-18T06:58:24.613Z,101440.0
2022-09-18T07:03:24.623Z,101450.0
2022-09-18T07:08:24.628Z,101450.0
2022-09-18T07:13:24.632Z,101450.0
2022-09-18T07:18:24.636Z,101460.0
2022-09-18T07:23:24.641Z,101450.0
2022-09-18T07:28:24.640Z,101450.0
2022-09-18T07:33:24.653Z,101450.0
2022-09-18T07:38:24.646Z,101440.0
2022-09-18T07:43:24.648Z,101440.0
2022-09-18T07:48:24.654Z,101440.0
2022-09-18T07:53:24.659Z,101440.0
2022-09-18T07:58:24.662Z,101440.0
2022-09-18T08:03:24.663Z,101440.0
2022-09-18T08:08:24.662Z,101450.0
2022-09-18T08:13:24.668Z,101440.0
2022-09-18T08:18:24.666Z,101450.0
2022-09-18T08:23:24.670Z,101440.0
2022-09-18T08:28:24.674Z,101450.0
2022-09-18T08:33:24.707Z,101450.0
2022-09-18T08:38:24.698Z,101440.0
2022-09-18T08:43:24.688Z,101440.0
2022-09-18T08:48:24.692Z,101450.0
2022-09-18T08:53:24.698Z,101430.0
2022-09-18T08:58:24.696Z,101430.0
2022-09-18T09:03:24.702Z,101430.0
2022-09-18T09:08:24.708Z,101440.0
2022-09-18T09:13:24.702Z,101430.0
2022-09-18T09:18:24.708Z,101420.0
2022-09-18T09:23:24.716Z,101420.0
2022-09-18T09:28:24.720Z,101420.0
2022-09-18T09:33:24.728Z,101420.0
2022-09-18T09:38:24.722Z,101420.0
2022-09-18T09:43:24.725Z,101410.0
2022-09-18T09:48:24.726Z,101410.0
2022-09-18T09:53:24.730Z,101400.0
2022-09-18T09:58:24.731Z,101410.0
2022-09-18T10:03:24.730Z,101410.0
2022-09-18T10:08:24.739Z,101390.0
2022-09-18T10:13:24.737Z,101390.0
2022-09-18T10:18:24.743Z,101410.0
2022-09-18T10:23:25.680Z,101410.0
2022-09-18T10:28:24.750Z,101420.0
2022-09-18T10:33:24.757Z,101430.0
2022-09-18T10:38:24.757Z,101430.0
2022-09-18T10:43:24.763Z,101440.0
2022-09-18T10:48:24.759Z,101440.0
2022-09-18T10:53:24.762Z,101430.0
2022-09-18T10:58:24.763Z,101430.0
2022-09-18T11:03:24.764Z,101420.0
2022-09-18T11:08:24.761Z,101430.0
2022-09-18T11:13:24.769Z,101430.0
2022-09-18T11:18:24.771Z,101430.0
2022-09-18T11:23:24.773Z,101420.0
2022-09-18T11:28:24.777Z,101420.0
2022-09-18T11:33:24.779Z,101420.0
2022-09-18T11:38:24.800Z,101410.0
2022-09-18T11:43:24.790Z,101410.0
2022-09-18T11:48:24.789Z,101410.0
2022-09-18T11:53:24.792Z,101410.0
2022-09-18T11:58:24.791Z,101420.0
2022-09-18T12:03:24.903Z,101420.0
2022-09-18T12:08:23.448Z,101410.0
2022-09-18T12:13:23.445Z,101420.0
2022-09-18T12:18:23.453Z,101430.0
2022-09-18T12:23:23.458Z,101440.0
2022-09-18T12:28:23.465Z,101430.0
2022-09-18T12:33:23.443Z,101420.0
2022-09-18T12:38:23.439Z,101430.0
2022-09-18T12:43:24.107Z,101430.0
2022-09-18T12:48:24.105Z,101420.0
2022-09-18T12:53:24.106Z,101420.0
2022-09-18T12:58:24.100Z,101430.0
2022-09-18T13:03:24.194Z,101410.0
2022-09-18T13:08:24.097Z,101410.0
2022-09-18T13:13:24.103Z,101410.0
2022-09-18T13:18:24.829Z,101410.0
2022-09-18T13:23:24.837Z,101410.0
2022-09-18T13:28:24.830Z,101410.0
2022-09-18T13:33:24.835Z,101400.0
2022-09-18T13:38:24.828Z,101400.0
2022-09-18T13:43:24.823Z,101400.0
2022-09-18T13:48:24.826Z,101410.0
2022-09-18T13:53:24.819Z,101410.0
2022-09-18T13:58:24.827Z,101430.0
2022-09-18T14:03:27.700Z,101430.0
2022-09-18T14:08:24.822Z,101440.0
2022-09-18T14:13:24.821Z,101420.0
2022-09-18T14:18:24.827Z,101440.0
2022-09-18T14:23:24.822Z,101430.0
2022-09-18T14:28:24.820Z,101430.0
2022-09-18T14:33:24.825Z,101430.0
2022-09-18T14:38:24.825Z,101420.0
2022-09-18T14:43:24.829Z,101420.0
2022-09-18T14:48:24.837Z,101410.0
2022-09-18T14:53:24.838Z,101410.0
2022-09-18T14:58:24.838Z,101410.0
2022-09-18T15:03:24.841Z,101410.0
2022-09-18T15:08:26.822Z,101400.0
2022-09-18T15:13:24.859Z,101410.0
2022-09-18T15:18:24.862Z,101400.0
2022-09-18T15:23:24.871Z,101400.0
2022-09-18T15:28:24.879Z,101410.0
2022-09-18T15:33:24.885Z,101410.0
2022-09-18T15:38:24.897Z,101400.0
2022-09-18T15:43:24.904Z,101410.0
2022-09-18T15:48:24.909Z,101410.0
2022-09-18T15:53:24.907Z,101410.0
2022-09-18T15:58:24.915Z,101410.0
2022-09-18T16:03:24.915Z,101420.0
2022-09-18T16:08:24.913Z,101420.0
2022-09-18T16:13:24.922Z,101420.0
2022-09-18T16:18:24.920Z,101420.0
2022-09-18T16:23:24.920Z,101430.0
2022-09-18T16:28:24.923Z,101440.0
2022-09-18T16:33:24.929Z,101440.0
2022-09-18T16:38:24.931Z,101450.0
2022-09-18T16:43:24.930Z,101450.0
2022-09-18T16:48:24.941Z,101460.0
2022-09-18T16:53:24.939Z,101450.0
2022-09-18T16:58:24.938Z,101460.0
2022-09-18T17:03:24.941Z,101470.0
2022-09-18T17:08:24.954Z,101460.0
2022-09-18T17:13:24.943Z,101450.0
2022-09-18T17:18:24.945Z,101450.0
2022-09-18T17:23:24.953Z,101440.0
2022-09-18T17:28:24.952Z,101430.0
2022-09-18T17:33:24.955Z,101450.0
2022-09-18T17:38:24.954Z,101450.0
2022-09-18T17:43:24.961Z,101440.0
2022-09-18T17:48:24.963Z,101450.0
2022-09-18T17:53:24.968Z,101460.0
2022-09-18T17:58:24.963Z,101450.0
2022-09-18T18:03:24.981Z,101460.0
2022-09-18T18:08:24.979Z,101460.0
2022-09-18T18:13:24.975Z,101460.0
2022-09-18T18:18:24.978Z,101470.0
2022-09-18T18:23:24.983Z,101480.0
2022-09-18T18:28:24.991Z,101480.0
2022-09-18T18:33:24.990Z,101480.0
2022-09-18T18:38:24.988Z,101490.0
2022-09-18T18:43:24.991Z,101510.0
2022-09-18T18:48:24.990Z,101530.0
2022-09-18T18:53:24.991Z,101530.0
2022-09-18T18:58:24.994Z,101540.0
2022-09-18T19:03:24.993Z,101530.0
2022-09-18T19:08:24.993Z,101540.0
2022-09-18T19:13:25.002Z,101550.0
2022-09-18T19:18:25.014Z,101550.0
2022-09-18T19:23:25.006Z,101550.0
2022-09-18T19:28:25.011Z,101560.0
2022-09-18T19:33:25.006Z,101560.0
2022-09-18T19:38:25.010Z,101560.0
2022-09-18T19:43:25.011Z,101570.0
2022-09-18T19:48:25.013Z,101560.0
2022-09-18T19:53:25.013Z,101570.0
2022-09-18T19:58:25.015Z,101580.0
2022-09-18T20:03:25.027Z,101570.0
2022-09-18T20:08:25.026Z,101580.0
2022-09-18T20:13:25.031Z,101590.0
2022-09-18T20:18:25.033Z,101590.0
2022-09-18T20:23:25.031Z,101600.0
2022-09-18T20:28:25.041Z,101600.0
2022-09-18T20:33:25.044Z,101590.0
2022-09-18T20:38:25.049Z,101610.0
2022-09-18T20:43:25.045Z,101610.0
2022-09-18T20:48:25.048Z,101620.0
2022-09-18T20:53:25.050Z,101620.0
2022-09-18T20:58:25.045Z,101610.0
2022-09-18T21:03:25.054Z,101620.0
2022-09-18T21:08:25.060Z,101620.0
2022-09-18T21:13:25.056Z,101610.0
2022-09-18T21:18:25.062Z,101630.0
2022-09-18T21:23:25.070Z,101630.0
2022-09-18T21:28:25.067Z,101630.0
2022-09-18T21:33:25.076Z,101640.0
2022-09-18T21:38:25.072Z,101640.0
2022-09-18T21:43:25.076Z,101650.0
2022-09-18T21:48:25.149Z,101650.0
2022-09-18T21:53:25.081Z,101660.0
2022-09-18T21:58:25.183Z,101650.0
2022-09-18T22:03:25.090Z,101670.0
2022-09-18T22:08:25.186Z,101670.0
2022-09-18T22:13:25.092Z,101670.0
2022-09-18T22:18:25.192Z,101670.0
2022-09-18T22:23:25.094Z,101680.0
2022-09-18T22:28:25.095Z,101680.0
2022-09-18T22:33:25.204Z,101680.0
2022-09-18T22:38:25.103Z,101680.0
2022-09-18T22:43:25.108Z,101690.0
2022-09-18T22:48:25.213Z,101690.0
2022-09-18T22:53:25.216Z,101690.0
2022-09-18T22:58:25.119Z,101690.0
2022-09-18T23:03:25.219Z,101700.0
2022-09-18T23:08:25.228Z,101700.0
2022-09-18T23:13:25.120Z,101710.0
2022-09-18T23:18:25.226Z,101710.0
2022-09-18T23:23:25.250Z,101700.0
2022-09-18T23:28:25.228Z,101700.0
2022-09-18T23:33:25.246Z,101710.0
2022-09-18T23:38:25.246Z,101700.0
2022-09-18T23:43:25.241Z,101720.0
2022-09-18T23:48:25.143Z,101720.0
2022-09-18T23:53:25.240Z,101720.0
2022-09-18T23:58:25.150Z,101720.0
